createdAt,value
2023-03-26T00:03:57.346Z,7.29
2023-03-26T00:07:58.763Z,7.31
2023-03-26T00:12:00.138Z,7.28
2023-03-26T00:16:03.131Z,7.29
2023-03-26T00:20:04.979Z,7.25
2023-03-26T00:24:07.434Z,7.30
2023-03-26T00:28:09.378Z,7.33
2023-03-26T00:32:12.134Z,7.39
2023-03-26T00:36:14.818Z,7.39
2023-03-26T00:40:16.327Z,7.39
2023-03-26T00:44:17.695Z,7.41
2023-03-26T00:48:24.541Z,7.35
2023-03-26T00:52:33.143Z,7.39
2023-03-26T00:56:34.564Z,7.43
2023-03-26T01:00:37.272Z,7.41
2023-03-26T01:04:40.240Z,7.42
2023-03-26T01:08:42.554Z,7.49
2023-03-26T01:12:43.953Z,7.54
2023-03-26T01:16:48.453Z,7.54
2023-03-26T01:20:51.526Z,7.58
2023-03-26T01:24:54.342Z,7.63
2023-03-26T01:28:56.692Z,7.52
2023-03-26T01:33:01.909Z,7.61
2023-03-26T01:37:08.966Z,7.58
2023-03-26T01:41:13.043Z,7.61
2023-03-26T01:45:16.027Z,7.64
2023-03-26T01:49:18.130Z,7.61
2023-03-26T01:53:19.622Z,7.60
2023-03-26T01:57:29.423Z,7.57
2023-03-26T02:01:36.323Z,7.52
2023-03-26T02:05:42.136Z,7.47
2023-03-26T02:09:47.020Z,7.36
2023-03-26T02:13:50.568Z,7.34
2023-03-26T02:17:52.069Z,7.28
2023-03-26T02:21:53.524Z,7.31
2023-03-26T02:25:55.120Z,7.34
2023-03-26T02:29:58.074Z,7.35
2023-03-26T02:33:59.428Z,7.41
2023-03-26T02:38:00.769Z,7.40
2023-03-26T02:42:02.155Z,7.48
2023-03-26T02:46:05.156Z,7.52
2023-03-26T02:50:06.986Z,7.46
2023-03-26T02:54:08.427Z,7.47
2023-03-26T02:58:09.830Z,7.57
2023-03-26T03:02:12.594Z,7.57
2023-03-26T03:06:14.586Z,7.53
2023-03-26T03:10:16.150Z,7.58
2023-03-26T03:14:17.558Z,7.51
2023-03-26T03:18:20.348Z,7.47
2023-03-26T03:22:21.704Z,7.46
2023-03-26T03:26:23.888Z,7.37
2023-03-26T03:30:25.433Z,7.32
2023-03-26T03:34:28.185Z,7.32
2023-03-26T03:38:29.580Z,7.30
2023-03-26T03:42:30.977Z,7.25
2023-03-26T03:46:32.503Z,7.26
2023-03-26T03:50:35.978Z,7.32
2023-03-26T03:54:37.477Z,7.29
2023-03-26T03:58:38.837Z,7.33
2023-03-26T04:02:40.336Z,7.37
2023-03-26T04:06:43.466Z,7.37
2023-03-26T04:10:44.882Z,7.32
2023-03-26T04:14:46.218Z,7.18
2023-03-26T04:18:47.568Z,7.16
2023-03-26T04:22:50.271Z,6.97
2023-03-26T04:26:51.667Z,6.84
2023-03-26T04:30:53.381Z,6.46
2023-03-26T04:34:54.744Z,6.24
2023-03-26T04:38:58.147Z,6.17
2023-03-26T04:42:59.501Z,5.97
2023-03-26T04:47:00.856Z,5.80
2023-03-26T04:51:02.403Z,5.67
2023-03-26T04:55:07.507Z,5.50
2023-03-26T04:59:10.675Z,5.48
2023-03-26T05:03:12.216Z,5.43
2023-03-26T05:07:16.381Z,5.39
2023-03-26T05:11:19.085Z,5.18
2023-03-26T05:15:20.546Z,5.13
2023-03-26T05:19:21.900Z,5.07
2023-03-26T05:23:23.284Z,5.17
2023-03-26T05:27:26.006Z,5.21
2023-03-26T05:31:27.453Z,5.22
2023-03-26T05:35:28.803Z,5.28
2023-03-26T05:39:30.182Z,5.35
2023-03-26T05:43:33.209Z,5.39
2023-03-26T05:47:34.956Z,5.46
2023-03-26T05:51:36.458Z,5.50
2023-03-26T05:55:37.786Z,5.67
2023-03-26T05:59:40.550Z,5.67
2023-03-26T06:03:41.997Z,5.83
2023-03-26T06:07:43.398Z,6.08
2023-03-26T06:11:44.853Z,6.28
2023-03-26T06:15:47.606Z,6.70
2023-03-26T06:19:49.110Z,7.05
2023-03-26T06:23:50.525Z,7.27
2023-03-26T06:27:51.928Z,7.46
2023-03-26T06:31:54.648Z,7.61
2023-03-26T06:35:56.067Z,7.83
2023-03-26T06:39:57.527Z,7.92
2023-03-26T06:43:58.926Z,7.87
2023-03-26T06:48:01.770Z,7.98
2023-03-26T06:52:03.389Z,8.07
2023-03-26T06:56:06.524Z,8.18
2023-03-26T07:00:09.798Z,8.18
2023-03-26T07:04:12.552Z,8.19
2023-03-26T07:08:13.985Z,8.23
2023-03-26T07:12:15.330Z,8.07
2023-03-26T07:16:16.809Z,7.94
2023-03-26T07:20:19.561Z,7.91
2023-03-26T07:24:21.226Z,8.05
2023-03-26T07:28:25.957Z,8.26
2023-03-26T07:32:29.796Z,8.27
2023-03-26T07:36:34.214Z,8.23
2023-03-26T07:40:49.557Z,8.42
2023-03-26T07:44:56.204Z,8.38
2023-03-26T07:48:57.843Z,8.65
2023-03-26T07:53:00.894Z,8.81
2023-03-26T07:57:04.740Z,8.73
2023-03-26T08:01:08.440Z,8.59
2023-03-26T08:05:14.009Z,8.73
2023-03-26T08:09:20.958Z,8.95
2023-03-26T08:13:24.765Z,8.94
2023-03-26T08:17:31.360Z,9.01
2023-03-26T08:21:35.682Z,9.02
2023-03-26T08:25:43.496Z,8.88
2023-03-26T08:29:50.110Z,8.96
2023-03-26T08:33:51.518Z,8.73
2023-03-26T08:37:53.033Z,9.01
2023-03-26T08:42:09.325Z,9.01
2023-03-26T08:46:28.604Z,8.96
2023-03-26T08:50:50.788Z,8.91
2023-03-26T08:55:10.247Z,9.11
2023-03-26T08:59:20.156Z,9.04
2023-03-26T09:03:36.399Z,8.94
2023-03-26T09:07:54.205Z,9.08
2023-03-26T09:12:14.591Z,9.18
2023-03-26T09:16:27.258Z,9.34
2023-03-26T09:20:47.203Z,9.39
2023-03-26T09:25:12.340Z,9.49
2023-03-26T09:29:33.200Z,9.56
2023-03-26T09:33:58.880Z,9.69
2023-03-26T09:38:00.841Z,9.47
2023-03-26T09:42:08.885Z,9.72
2023-03-26T09:46:18.740Z,10.01
2023-03-26T09:50:29.590Z,9.87
2023-03-26T09:54:45.871Z,9.80
2023-03-26T09:58:59.931Z,9.89
2023-03-26T10:03:08.273Z,9.80
2023-03-26T10:07:17.679Z,9.55
2023-03-26T10:11:23.522Z,9.54
2023-03-26T10:15:31.903Z,9.84
2023-03-26T10:19:43.363Z,9.74
2023-03-26T10:24:02.245Z,9.60
2023-03-26T10:28:25.980Z,9.43
2023-03-26T10:32:34.447Z,9.56
2023-03-26T10:36:36.254Z,9.54
2023-03-26T10:40:41.354Z,9.37
2023-03-26T10:44:57.594Z,9.47
2023-03-26T10:49:08.621Z,9.52
2023-03-26T10:53:13.244Z,9.55
2023-03-26T10:57:22.529Z,9.54
2023-03-26T11:01:32.032Z,9.31
2023-03-26T11:05:46.286Z,9.44
2023-03-26T11:09:51.139Z,9.44
2023-03-26T11:13:55.900Z,9.46
2023-03-26T11:18:03.587Z,9.15
2023-03-26T11:22:15.227Z,9.12
2023-03-26T11:26:17.221Z,8.71
2023-03-26T11:30:23.509Z,8.50
2023-03-26T11:34:27.867Z,8.75
2023-03-26T11:38:32.290Z,8.59
2023-03-26T11:42:33.698Z,8.72
2023-03-26T11:46:37.906Z,8.59
2023-03-26T11:50:41.347Z,8.38
2023-03-26T11:54:44.101Z,8.17
2023-03-26T11:58:49.282Z,8.10
2023-03-26T12:02:55.622Z,7.91
2023-03-26T12:06:58.484Z,7.93
2023-03-26T12:11:04.036Z,8.09
2023-03-26T12:15:12.535Z,8.43
2023-03-26T12:19:18.764Z,8.73
2023-03-26T12:23:34.789Z,9.05
2023-03-26T12:27:37.751Z,9.34
2023-03-26T12:31:51.949Z,9.23
2023-03-26T12:35:54.203Z,9.19
2023-03-26T12:40:10.588Z,8.96
2023-03-26T12:44:55.429Z,9.06
2023-03-26T12:48:43.214Z,9.14
2023-03-26T12:53:01.411Z,9.25
2023-03-26T12:57:12.920Z,9.33
2023-03-26T13:01:22.266Z,9.25
2023-03-26T13:05:32.663Z,9.48
2023-03-26T13:09:41.898Z,9.32
2023-03-26T13:13:51.319Z,9.11
2023-03-26T13:18:00.789Z,9.23
2023-03-26T13:22:10.279Z,9.05
2023-03-26T13:26:18.087Z,8.78
2023-03-26T13:30:22.934Z,8.90
2023-03-26T13:34:32.903Z,9.03
2023-03-26T13:38:40.955Z,9.18
2023-03-26T13:42:48.387Z,9.50
2023-03-26T13:46:51.268Z,9.87
2023-03-26T13:50:59.289Z,10.36
2023-03-26T13:55:16.349Z,10.56
2023-03-26T13:59:20.834Z,10.65
2023-03-26T14:03:25.550Z,10.73
2023-03-26T14:07:31.877Z,10.73
2023-03-26T14:11:38.531Z,10.58
2023-03-26T14:15:41.903Z,10.64
2023-03-26T14:19:56.972Z,10.71
2023-03-26T14:24:27.685Z,10.57
2023-03-26T14:28:37.926Z,10.81
2023-03-26T14:32:59.073Z,11.01
2023-03-26T14:37:12.920Z,10.79
2023-03-26T14:41:21.694Z,10.80
2023-03-26T14:45:41.050Z,10.87
2023-03-26T14:50:12.293Z,11.14
2023-03-26T14:54:16.986Z,11.29
2023-03-26T14:58:31.942Z,11.41
2023-03-26T15:02:54.329Z,11.37
2023-03-26T15:07:14.713Z,11.33
2023-03-26T15:11:22.243Z,11.17
2023-03-26T15:16:00.987Z,11.05
2023-03-26T15:20:20.132Z,11.06
2023-03-26T15:24:36.659Z,11.04
2023-03-26T15:29:01.549Z,11.10
2023-03-26T15:33:36.051Z,10.98
2023-03-26T15:37:52.305Z,10.96
2023-03-26T15:41:58.073Z,11.12
2023-03-26T15:46:12.759Z,10.86
2023-03-26T15:50:18.981Z,10.85
2023-03-26T15:54:28.232Z,10.45
2023-03-26T15:58:35.593Z,10.38
2023-03-26T16:02:41.686Z,10.43
2023-03-26T16:06:50.840Z,10.46
2023-03-26T16:10:53.972Z,10.67
2023-03-26T16:15:19.902Z,10.55
2023-03-26T16:19:45.882Z,10.70
2023-03-26T16:23:55.239Z,10.59
2023-03-26T16:28:19.471Z,10.70
2023-03-26T16:32:25.107Z,10.87
2023-03-26T16:36:30.513Z,10.84
2023-03-26T16:40:35.313Z,10.66
2023-03-26T16:44:43.691Z,10.77
2023-03-26T16:48:50.943Z,10.63
2023-03-26T16:52:58.070Z,10.36
2023-03-26T16:57:00.689Z,10.35
2023-03-26T17:01:07.005Z,10.19
2023-03-26T17:05:16.238Z,10.06
2023-03-26T17:09:22.640Z,9.72
2023-03-26T17:13:27.952Z,9.44
2023-03-26T17:17:35.812Z,9.16
2023-03-26T17:21:45.970Z,8.99
2023-03-26T17:25:57.245Z,8.87
2023-03-26T17:30:02.551Z,8.73
2023-03-26T17:34:24.922Z,8.52
2023-03-26T17:38:44.788Z,8.50
2023-03-26T17:43:01.608Z,8.31
2023-03-26T17:47:04.477Z,8.13
2023-03-26T17:51:13.182Z,7.93
2023-03-26T17:55:16.601Z,7.92
2023-03-26T17:59:20.618Z,7.66
2023-03-26T18:03:24.048Z,7.63
2023-03-26T18:07:55.453Z,7.63
2023-03-26T18:12:04.246Z,7.47
2023-03-26T18:16:12.470Z,7.27
2023-03-26T18:20:21.014Z,6.98
2023-03-26T18:24:24.419Z,7.12
2023-03-26T18:28:30.259Z,7.06
2023-03-26T18:32:33.179Z,6.91
2023-03-26T18:36:34.630Z,6.83
2023-03-26T18:40:40.305Z,6.87
2023-03-26T18:44:41.716Z,6.94
2023-03-26T18:48:46.132Z,6.90
2023-03-26T18:52:47.729Z,7.02
2023-03-26T18:56:49.535Z,7.06
2023-03-26T19:00:51.609Z,7.02
2023-03-26T19:04:54.516Z,6.92
2023-03-26T19:08:56.410Z,7.14
2023-03-26T19:12:58.666Z,7.16
2023-03-26T19:17:01.446Z,7.19
2023-03-26T19:21:04.368Z,7.43
2023-03-26T19:25:06.517Z,7.44
2023-03-26T19:29:12.140Z,7.46
2023-03-26T19:33:15.099Z,7.55
2023-03-26T19:37:19.176Z,7.58
2023-03-26T19:41:21.708Z,7.78
2023-03-26T19:45:23.446Z,7.82
2023-03-26T19:49:28.390Z,7.80
2023-03-26T19:53:32.554Z,7.73
2023-03-26T19:57:34.083Z,7.68
2023-03-26T20:01:35.451Z,7.62
2023-03-26T20:05:36.797Z,7.55
2023-03-26T20:09:39.505Z,7.57
2023-03-26T20:13:40.874Z,7.60
2023-03-26T20:17:42.234Z,7.59
2023-03-26T20:21:43.661Z,7.72
2023-03-26T20:25:48.093Z,7.81
2023-03-26T20:29:49.481Z,7.80
2023-03-26T20:33:51.684Z,7.77
2023-03-26T20:37:53.023Z,7.68
2023-03-26T20:41:55.735Z,7.76
2023-03-26T20:45:57.196Z,7.76
2023-03-26T20:49:58.810Z,7.74
2023-03-26T20:54:00.179Z,7.76
2023-03-26T20:58:04.076Z,7.69
2023-03-26T21:02:05.534Z,7.67
2023-03-26T21:06:08.345Z,7.63
2023-03-26T21:10:11.113Z,7.51
2023-03-26T21:14:16.875Z,7.37
2023-03-26T21:18:18.522Z,7.36
2023-03-26T21:22:26.045Z,7.37
2023-03-26T21:26:29.738Z,7.38
2023-03-26T21:30:32.941Z,7.35
2023-03-26T21:34:35.078Z,7.30
2023-03-26T21:38:36.765Z,7.22
2023-03-26T21:42:38.450Z,7.18
2023-03-26T21:46:42.716Z,7.17
2023-03-26T21:50:44.581Z,7.21
2023-03-26T21:54:46.149Z,7.15
2023-03-26T21:58:50.049Z,7.10
2023-03-26T22:03:03.818Z,7.15
2023-03-26T22:07:09.660Z,7.15
2023-03-26T22:11:11.593Z,7.11
2023-03-26T22:15:13.315Z,7.05
2023-03-26T22:19:15.998Z,7.09
2023-03-26T22:23:17.338Z,7.05
2023-03-26T22:27:18.706Z,7.02
2023-03-26T22:31:20.078Z,7.11
2023-03-26T22:35:22.848Z,7.05
2023-03-26T22:39:24.249Z,6.96
2023-03-26T22:43:25.616Z,7.05
2023-03-26T22:47:27.013Z,6.97
2023-03-26T22:51:31.679Z,7.04
2023-03-26T22:55:33.113Z,7.11
2023-03-26T22:59:34.449Z,7.02
2023-03-26T23:03:36.400Z,7.08
2023-03-26T23:07:39.199Z,7.08
2023-03-26T23:11:40.534Z,7.03
2023-03-26T23:15:41.875Z,6.92
2023-03-26T23:19:43.216Z,7.01
2023-03-26T23:23:46.048Z,6.97
2023-03-26T23:27:47.398Z,7.01
2023-03-26T23:31:48.811Z,6.97
2023-03-26T23:35:50.933Z,6.90
2023-03-26T23:39:53.706Z,6.78
2023-03-26T23:43:55.846Z,6.87
2023-03-26T23:47:57.397Z,6.93
2023-03-26T23:51:58.741Z,6.97
2023-03-26T23:56:01.602Z,6.95
